Terminal Aerodrome Forecast
Issued by NWS

Home | Current Version | Previous Version | Text Only | Print | Product List | Glossary On
Versions: 1 2 3 4 5 6 7 8 9 10 11 12 13 14 15 16 17
000
FTUS46 KSEW 301100
TAFCLM
TAF
KCLM 301137Z 3012/3112 27003KT P6SM -RA OVC060
      TEMPO 3014/3018 -SHRA BKN025 OVC050
     FM302000 31008KT P6SM VCSH SCT050 BKN090
     FM310800 27006KT P6SM SCT025 BKN050=

USA.gov is the U.S. government's official web portal to all federal, state and local government web resources and services.